KTTD

Portland-Troutdale Airport

Portland, Oregon, USA
KTTD 251736Z 2518/2618 VRB04KT P6SM SKC FM260600 09007KT P6SM SKC
Issued Valid From Valid To
Apr-25 @ 17:36 UTC
(45 minutes ago)
Apr-25 @ 18:00 UTC
(21 minutes ago)
Apr-26 @ 18:00 UTC
(in 24 hours)
Apr-25 @ 18:00 to Apr-26 @ 06:00
KTTD 251736Z 2518/2618 VRB04KT P6SM SKC
Wind Visibility Clouds
Variable at 4 knots Greater than 6 miles
  • Clear skies
From Apr-26 @ 06:00 to Apr-26 @ 18:00
FM260600 09007KT P6SM SKC
Wind Visibility Clouds
90° at 7 knots Greater than 6 miles
  • Clear skies
KTTD 251736Z 2518/2618 VRB04KT P6SM SKC FM260600 09007KT P6SM SKC
Issued Apr-25 @ 17:36 UTC
(45 minutes ago)
Valid From Apr-25 @ 18:00 UTC
(21 minutes ago)
Valid To Apr-26 @ 18:00 UTC
(in 24 hours)
Apr-25 @ 18:00 - Apr-26 @ 06:00
Wind Visibility
Variable at 4 knots Greater than 6 miles
Clouds
  • Clear skies
From Apr-26 @ 06:00 - Apr-26 @ 18:00
Wind Visibility
90° at 7 knots Greater than 6 miles
Clouds
  • Clear skies